Time;durP1;ratioP1;P1;durP2;ratioP2;P2;SDS_P1;SDS_P2;PMS_P1;PMS_P2;Temp;Humidity;BMP_temperature;BMP_pressure;BME280_temperature;BME280_humidity;BME280_pressure;Samples;Min_cycle;Max_cycle;Signal;HPM_P1;HPM_P2
2021/11/03 00:00:02;;;;;;;3.47;3.17;;;9.30;99.90;;;;;;5045515;28;20743;-73
2021/11/03 00:02:28;;;;;;;3.57;3.30;;;9.20;99.90;;;;;;5046024;28;20200;-73
2021/11/03 00:04:57;;;;;;;3.57;3.27;;;9.20;99.90;;;;;;5045512;28;20722;-73
2021/11/03 00:07:24;;;;;;;3.40;3.10;;;9.20;99.90;;;;;;5045350;28;20206;-73
2021/11/03 00:09:50;;;;;;;3.00;2.80;;;9.20;99.90;;;;;;5045783;28;20240;-75
2021/11/03 00:12:18;;;;;;;3.60;3.30;;;9.20;99.90;;;;;;5045780;28;20236;-73
2021/11/03 00:14:45;;;;;;;3.40;3.10;;;9.20;99.90;;;;;;5045368;28;20703;-73
2021/11/03 00:17:12;;;;;;;4.20;3.30;;;9.20;99.90;;;;;;5045670;28;20293;-73
2021/11/03 00:19:38;;;;;;;3.67;3.30;;;9.20;99.90;;;;;;5045627;28;20219;-73
2021/11/03 00:22:05;;;;;;;3.50;3.30;;;9.20;99.90;;;;;;5045611;28;20252;-73
2021/11/03 00:24:34;;;;;;;3.60;3.17;;;9.30;99.90;;;;;;5045653;28;20208;-73
2021/11/03 00:27:01;;;;;;;3.50;3.20;;;9.20;99.90;;;;;;5045373;28;20224;-72
2021/11/03 00:29:29;;;;;;;3.50;3.30;;;9.20;99.90;;;;;;5045199;28;20236;-72
2021/11/03 00:31:56;;;;;;;2.93;2.77;;;9.20;99.90;;;;;;5045205;28;20727;-72
2021/11/03 00:34:22;;;;;;;4.33;3.37;;;9.20;99.90;;;;;;5045395;28;20236;-72
2021/11/03 00:36:49;;;;;;;4.13;3.77;;;9.10;99.90;;;;;;5045396;28;20204;-73
2021/11/03 00:39:16;;;;;;;3.47;3.27;;;9.10;99.90;;;;;;5045196;28;20266;-72
2021/11/03 00:41:42;;;;;;;3.80;3.50;;;9.10;99.90;;;;;;5044856;28;20683;-72
2021/11/03 00:44:09;;;;;;;3.73;3.47;;;9.10;99.90;;;;;;5045390;28;20212;-72
2021/11/03 00:46:37;;;;;;;3.97;2.87;;;9.10;99.90;;;;;;5045342;28;20230;-73
2021/11/03 00:49:04;;;;;;;3.23;2.90;;;9.00;99.90;;;;;;5045048;28;20239;-72
2021/11/03 00:51:30;;;;;;;3.53;3.20;;;9.00;99.90;;;;;;5045365;28;20703;-72
2021/11/03 00:53:57;;;;;;;4.00;3.23;;;8.90;99.90;;;;;;5045045;28;20204;-72
2021/11/03 00:56:24;;;;;;;5.13;3.90;;;8.90;99.90;;;;;;5045197;28;20210;-72
2021/11/03 00:58:50;;;;;;;3.90;3.70;;;8.90;99.90;;;;;;5044675;28;20240;-72
2021/11/03 01:01:17;;;;;;;4.83;4.20;;;9.00;99.90;;;;;;5044778;28;20722;-72
2021/11/03 01:03:46;;;;;;;4.90;4.23;;;9.00;99.90;;;;;;5044783;28;20779;-72
2021/11/03 01:06:13;;;;;;;6.20;4.67;;;9.00;99.90;;;;;;5045288;28;20287;-72
2021/11/03 01:08:40;;;;;;;5.00;4.50;;;9.00;99.90;;;;;;5044740;28;20255;-72
2021/11/03 01:11:06;;;;;;;4.43;4.10;;;9.00;99.90;;;;;;5045022;28;20265;-72
2021/11/03 01:13:33;;;;;;;5.57;4.53;;;9.00;99.90;;;;;;5045200;28;20205;-72
2021/11/03 01:16:00;;;;;;;4.90;4.50;;;8.90;99.90;;;;;;5044915;28;20219;-72
2021/11/03 01:18:29;;;;;;;5.10;4.40;;;9.00;99.90;;;;;;5044855;28;20208;-72
2021/11/03 01:20:58;;;;;;;4.50;4.10;;;8.90;99.90;;;;;;5044848;28;20236;-72
2021/11/03 01:23:26;;;;;;;4.57;4.27;;;8.90;99.90;;;;;;5044784;28;20702;-72
2021/11/03 01:25:53;;;;;;;4.90;4.50;;;8.80;99.90;;;;;;5048439;28;20273;-72
2021/11/03 01:28:21;;;;;;;4.83;4.47;;;8.80;99.90;;;;;;5048107;28;20577;-72
2021/11/03 01:30:48;;;;;;;4.97;4.47;;;8.80;99.90;;;;;;5048300;28;20273;-72
2021/11/03 01:33:17;;;;;;;5.07;4.67;;;8.80;99.90;;;;;;5048254;28;20208;-72
2021/11/03 01:35:44;;;;;;;4.90;4.50;;;8.80;99.90;;;;;;5048123;28;20217;-72
2021/11/03 01:38:12;;;;;;;5.07;4.30;;;8.80;99.90;;;;;;5047814;28;20245;-72
2021/11/03 01:40:45;;;;;;;4.77;4.37;;;8.70;99.90;;;;;;5048041;28;20204;-72
2021/11/03 01:43:18;;;;;;;5.33;4.87;;;8.70;99.90;;;;;;5048234;28;20195;-73
2021/11/03 01:45:48;;;;;;;4.80;4.50;;;8.60;99.90;;;;;;5047810;28;20238;-72
2021/11/03 01:48:14;;;;;;;5.73;4.80;;;8.60;99.90;;;;;;5047580;28;20235;-73
2021/11/03 01:50:49;;;;;;;5.10;4.70;;;8.50;99.90;;;;;;5047894;28;20204;-73
2021/11/03 01:53:21;;;;;;;5.03;4.73;;;8.60;99.90;;;;;;5048025;28;20204;-72
2021/11/03 01:55:58;;;;;;;5.43;5.03;;;8.60;99.90;;;;;;5047722;28;20625;-72
2021/11/03 01:58:30;;;;;;;4.57;4.20;;;8.50;99.90;;;;;;5047704;28;20707;-72
2021/11/03 02:00:58;;;;;;;4.90;4.50;;;8.50;99.90;;;;;;5047450;28;20240;-73
2021/11/03 02:03:28;;;;;;;4.93;4.53;;;8.50;99.90;;;;;;5047598;28;20364;-72
2021/11/03 02:06:00;;;;;;;5.17;4.67;;;8.50;99.90;;;;;;5048116;28;20223;-72
2021/11/03 02:08:31;;;;;;;5.30;4.90;;;8.50;99.90;;;;;;5047438;27;20227;-73
2021/11/03 02:10:58;;;;;;;5.33;4.70;;;8.50;99.90;;;;;;5047704;28;20200;-74
2021/11/03 02:13:25;;;;;;;6.33;5.43;;;8.40;99.90;;;;;;5047274;28;20241;-74
2021/11/03 02:15:52;;;;;;;5.53;5.03;;;8.40;99.90;;;;;;5027855;27;20216;-75
2021/11/03 02:18:22;;;;;;;5.50;5.00;;;8.40;99.90;;;;;;5027567;28;20217;-74
2021/11/03 02:20:51;;;;;;;6.43;5.93;;;8.40;99.90;;;;;;5027538;28;20240;-74
2021/11/03 02:23:27;;;;;;;6.00;5.47;;;8.40;99.90;;;;;;5027720;28;20234;-74
2021/11/03 02:26:00;;;;;;;8.47;5.77;;;8.40;99.90;;;;;;5027601;28;20232;-74
2021/11/03 02:28:29;;;;;;;6.10;5.60;;;8.40;99.90;;;;;;5027619;28;20236;-73
2021/11/03 02:30:56;;;;;;;6.77;6.10;;;8.40;99.90;;;;;;5027361;28;20241;-73
2021/11/03 02:33:26;;;;;;;6.43;5.93;;;8.40;99.90;;;;;;5027388;28;20205;-73
2021/11/03 02:35:55;;;;;;;6.60;6.00;;;8.40;99.90;;;;;;5026199;28;20205;-73
2021/11/03 02:38:30;;;;;;;7.13;6.43;;;8.40;99.90;;;;;;5027456;28;20627;-74
2021/11/03 02:41:03;;;;;;;6.13;5.63;;;8.40;99.90;;;;;;5027192;28;20194;-74
2021/11/03 02:43:35;;;;;;;6.60;6.10;;;8.30;99.90;;;;;;5027402;28;20201;-74
2021/11/03 02:46:03;;;;;;;6.90;6.10;;;8.30;99.90;;;;;;5027086;28;20232;-73
2021/11/03 02:48:32;;;;;;;6.90;5.83;;;8.30;99.90;;;;;;5027155;28;20244;-73
2021/11/03 02:51:03;;;;;;;7.03;5.90;;;8.30;99.90;;;;;;5027097;28;20217;-73
2021/11/03 02:53:32;;;;;;;7.10;6.03;;;8.20;99.90;;;;;;5027002;28;20233;-73
2021/11/03 02:56:00;;;;;;;5.57;5.23;;;8.20;99.90;;;;;;5026928;28;20209;-73
2021/11/03 02:58:27;;;;;;;6.67;6.07;;;8.10;99.90;;;;;;5026667;28;20609;-71
2021/11/03 03:00:55;;;;;;;6.60;5.97;;;8.10;99.90;;;;;;5026396;28;20245;-71
2021/11/03 03:03:22;;;;;;;6.87;6.27;;;8.10;99.90;;;;;;5026604;28;20650;-73
2021/11/03 03:05:56;;;;;;;7.17;6.53;;;8.10;99.90;;;;;;5026764;28;20713;-74
2021/11/03 03:08:24;;;;;;;6.50;6.00;;;8.00;99.90;;;;;;5026873;28;20250;-74
2021/11/03 03:10:50;;;;;;;6.77;5.27;;;8.10;99.90;;;;;;5026849;28;20205;-73
2021/11/03 03:13:18;;;;;;;6.20;5.70;;;8.10;99.90;;;;;;5031901;28;20226;-73
2021/11/03 03:15:45;;;;;;;5.50;5.10;;;8.00;99.90;;;;;;5029295;28;20212;-73
2021/11/03 03:18:11;;;;;;;5.70;5.30;;;8.00;99.90;;;;;;5046378;28;20204;-73
2021/11/03 03:20:38;;;;;;;5.43;5.00;;;7.90;99.90;;;;;;5046577;27;20265;-74
2021/11/03 03:23:05;;;;;;;5.70;5.30;;;7.90;99.90;;;;;;5046460;28;20261;-73
2021/11/03 03:25:34;;;;;;;5.77;5.27;;;7.80;99.90;;;;;;5046571;28;20267;-72
2021/11/03 03:28:01;;;;;;;7.07;5.40;;;7.70;99.90;;;;;;5045773;28;20285;-73
2021/11/03 03:30:29;;;;;;;5.93;5.33;;;7.70;99.90;;;;;;5046082;28;20709;-73
2021/11/03 03:32:55;;;;;;;5.87;5.37;;;7.70;99.90;;;;;;5046229;28;20313;-73
2021/11/03 03:35:22;;;;;;;5.97;5.57;;;7.60;99.90;;;;;;5046589;28;20204;-73
2021/11/03 03:37:50;;;;;;;6.20;5.73;;;7.60;99.90;;;;;;5046349;28;20249;-72
2021/11/03 03:40:16;;;;;;;5.80;5.40;;;7.60;99.90;;;;;;5046220;28;20209;-72
2021/11/03 03:42:43;;;;;;;5.80;5.40;;;7.60;99.90;;;;;;5046291;28;20296;-73
2021/11/03 03:45:10;;;;;;;5.60;5.20;;;7.50;99.90;;;;;;5046394;28;20264;-73
2021/11/03 03:47:38;;;;;;;5.60;5.20;;;7.50;99.90;;;;;;5045496;28;20713;-72
2021/11/03 03:50:06;;;;;;;5.60;5.20;;;7.50;99.90;;;;;;5045777;28;20763;-73
2021/11/03 03:52:33;;;;;;;5.67;5.27;;;7.50;99.90;;;;;;5046512;27;20276;-74
2021/11/03 03:55:00;;;;;;;5.90;5.40;;;7.50;99.90;;;;;;5046194;28;20256;-73
2021/11/03 03:57:27;;;;;;;5.63;5.23;;;7.50;99.90;;;;;;5046093;28;20237;-74
2021/11/03 03:59:53;;;;;;;5.97;5.47;;;7.50;99.90;;;;;;5045454;27;20236;-74
2021/11/03 04:02:20;;;;;;;5.67;5.27;;;7.50;99.90;;;;;;5045554;28;20735;-74
2021/11/03 04:04:48;;;;;;;6.10;5.60;;;7.50;99.90;;;;;;5045347;28;20244;-73
2021/11/03 04:07:15;;;;;;;6.03;5.63;;;7.40;99.90;;;;;;5045443;28;20697;-73
2021/11/03 04:09:41;;;;;;;6.10;5.70;;;7.40;99.90;;;;;;5045807;28;20273;-73
2021/11/03 04:12:09;;;;;;;6.53;6.03;;;7.40;99.90;;;;;;5045780;28;20256;-73
2021/11/03 04:14:35;;;;;;;6.27;5.77;;;7.40;99.90;;;;;;5045361;28;20750;-73
2021/11/03 04:17:02;;;;;;;7.23;6.43;;;7.40;99.90;;;;;;5045738;28;20231;-73
2021/11/03 04:19:29;;;;;;;6.53;6.03;;;7.40;99.90;;;;;;5045396;28;20204;-73
2021/11/03 04:21:57;;;;;;;7.20;6.60;;;7.50;99.90;;;;;;5045582;28;20616;-73
2021/11/03 04:24:23;;;;;;;7.43;6.83;;;7.40;99.90;;;;;;5045534;28;20208;-73
2021/11/03 04:26:50;;;;;;;7.60;7.00;;;7.50;99.90;;;;;;5045166;28;20207;-72
2021/11/03 04:29:19;;;;;;;7.30;6.70;;;7.40;99.90;;;;;;5045509;28;20256;-72
2021/11/03 04:31:46;;;;;;;8.73;7.93;;;7.50;99.90;;;;;;5045404;28;20237;-72
2021/11/03 04:34:13;;;;;;;8.07;7.47;;;7.50;99.90;;;;;;5045887;28;20208;-72
2021/11/03 04:36:40;;;;;;;8.17;7.37;;;7.50;99.90;;;;;;5045468;28;20200;-72
2021/11/03 04:39:10;;;;;;;7.77;7.13;;;7.50;99.90;;;;;;5045347;28;20211;-72
2021/11/03 04:41:39;;;;;;;8.40;7.67;;;7.50;99.90;;;;;;5037144;28;20200;-72
2021/11/03 04:44:06;;;;;;;7.47;6.87;;;7.50;99.90;;;;;;5033628;28;20244;-72
2021/11/03 04:46:33;;;;;;;9.20;8.40;;;7.50;99.90;;;;;;5031657;28;20216;-70
2021/11/03 04:49:00;;;;;;;8.03;7.40;;;7.50;99.90;;;;;;5032126;28;20208;-72
2021/11/03 04:51:27;;;;;;;7.73;7.13;;;7.50;99.90;;;;;;5036434;28;20213;-72
2021/11/03 04:53:54;;;;;;;8.63;7.00;;;7.50;99.90;;;;;;5045264;28;20208;-72
2021/11/03 04:56:26;;;;;;;7.90;7.20;;;7.50;99.90;;;;;;5027001;28;20626;-72
2021/11/03 04:58:53;;;;;;;7.40;6.80;;;7.40;99.90;;;;;;5030433;28;20626;-72
2021/11/03 05:01:21;;;;;;;7.53;6.93;;;7.40;99.90;;;;;;5045157;28;20362;-72
2021/11/03 05:03:48;;;;;;;7.57;6.87;;;7.30;99.90;;;;;;5045180;28;20223;-72
2021/11/03 05:06:18;;;;;;;8.20;7.40;;;7.30;99.90;;;;;;5045025;28;20249;-73
2021/11/03 05:08:45;;;;;;;7.27;6.67;;;7.30;99.90;;;;;;5044217;28;20204;-73
2021/11/03 05:11:12;;;;;;;7.33;6.73;;;7.30;99.90;;;;;;5036890;28;20278;-72
2021/11/03 05:13:40;;;;;;;7.73;7.00;;;7.30;99.90;;;;;;5024638;28;20258;-72
2021/11/03 05:16:07;;;;;;;7.50;6.90;;;7.30;99.90;;;;;;5024903;28;20309;-72
2021/11/03 05:18:33;;;;;;;7.43;6.83;;;7.20;99.90;;;;;;5024501;28;20359;-73
2021/11/03 05:21:00;;;;;;;7.27;6.67;;;7.20;99.90;;;;;;5024174;28;20270;-72
2021/11/03 05:23:27;;;;;;;7.13;6.53;;;7.20;99.90;;;;;;5024785;28;20205;-72
2021/11/03 05:25:54;;;;;;;7.10;6.53;;;7.20;99.90;;;;;;5024323;28;20236;-73
2021/11/03 05:28:22;;;;;;;7.20;6.67;;;7.20;99.90;;;;;;5024524;28;20251;-73
2021/11/03 05:30:51;;;;;;;7.30;6.70;;;7.10;99.90;;;;;;5025133;28;20666;-72
2021/11/03 05:33:17;;;;;;;7.40;6.70;;;7.10;99.90;;;;;;5047630;28;20252;-72
2021/11/03 05:35:45;;;;;;;7.27;6.57;;;7.10;99.90;;;;;;5046137;28;20245;-72
2021/11/03 05:38:12;;;;;;;7.20;6.60;;;7.10;99.90;;;;;;5045791;28;20208;-72
2021/11/03 05:40:39;;;;;;;7.07;6.47;;;7.10;99.90;;;;;;5046118;27;20208;-72
2021/11/03 05:43:06;;;;;;;7.80;7.20;;;7.10;99.90;;;;;;5046538;28;20215;-73
2021/11/03 05:45:33;;;;;;;7.13;6.63;;;7.10;99.90;;;;;;5046339;28;20231;-73
2021/11/03 05:48:01;;;;;;;7.50;6.80;;;7.10;99.90;;;;;;5046386;28;20277;-73
2021/11/03 05:50:31;;;;;;;7.30;6.70;;;7.10;99.90;;;;;;5047356;28;20697;-73
2021/11/03 05:52:58;;;;;;;7.43;6.73;;;7.00;99.90;;;;;;5047921;28;20222;-73
2021/11/03 05:55:25;;;;;;;6.77;6.23;;;7.00;99.90;;;;;;5047913;28;20253;-73
2021/11/03 05:57:52;;;;;;;9.87;8.97;;;7.00;99.90;;;;;;5048028;28;20265;-73
2021/11/03 06:00:21;;;;;;;10.33;9.47;;;7.00;99.90;;;;;;5047492;28;20324;-73
2021/11/03 06:02:50;;;;;;;11.90;10.67;;;7.00;99.90;;;;;;5047482;27;20232;-72
2021/11/03 06:05:18;;;;;;;11.73;10.63;;;7.00;99.90;;;;;;5047352;28;20211;-73
2021/11/03 06:07:51;;;;;;;11.30;9.73;;;6.90;99.90;;;;;;5047441;27;20208;-72
2021/11/03 06:10:24;;;;;;;9.90;9.10;;;6.90;99.90;;;;;;5047424;28;20277;-72
2021/11/03 06:12:51;;;;;;;9.67;8.87;;;6.90;99.90;;;;;;5047354;28;20565;-72
2021/11/03 06:15:18;;;;;;;7.87;7.27;;;6.90;99.90;;;;;;5047399;28;20292;-73
2021/11/03 06:17:45;;;;;;;7.27;6.67;;;6.90;99.90;;;;;;5047059;28;20212;-73
2021/11/03 06:20:12;;;;;;;6.70;6.20;;;6.90;99.90;;;;;;5047903;28;20237;-73
2021/11/03 06:22:40;;;;;;;7.10;6.60;;;6.90;99.90;;;;;;5047646;28;20204;-73
2021/11/03 06:25:11;;;;;;;6.80;6.20;;;6.80;99.90;;;;;;5047456;28;20232;-73
2021/11/03 06:27:39;;;;;;;6.93;6.33;;;6.80;99.90;;;;;;5047068;28;20224;-73
2021/11/03 06:30:07;;;;;;;6.67;6.17;;;6.80;99.90;;;;;;5047293;28;20292;-74
2021/11/03 06:32:35;;;;;;;6.07;5.63;;;6.80;99.90;;;;;;5046746;28;20205;-73
2021/11/03 06:35:01;;;;;;;6.90;6.20;;;6.80;99.90;;;;;;5047160;28;20239;-73
2021/11/03 06:37:28;;;;;;;6.37;5.87;;;6.80;99.90;;;;;;5047138;28;20208;-73
2021/11/03 06:39:56;;;;;;;6.53;5.93;;;6.80;99.90;;;;;;5046991;28;20264;-73
2021/11/03 06:42:22;;;;;;;6.50;6.00;;;6.80;99.90;;;;;;5046800;28;20229;-73
2021/11/03 06:44:50;;;;;;;6.77;6.17;;;6.80;99.90;;;;;;5047009;28;20230;-73
2021/11/03 06:47:19;;;;;;;7.10;6.40;;;6.80;99.90;;;;;;5046841;28;20308;-73
2021/11/03 06:49:46;;;;;;;7.20;6.60;;;6.80;99.90;;;;;;5046686;28;20273;-73
2021/11/03 06:52:13;;;;;;;7.30;6.60;;;6.80;99.90;;;;;;5046404;28;20735;-73
2021/11/03 06:54:40;;;;;;;7.33;6.73;;;6.80;99.90;;;;;;5046781;28;20212;-73
2021/11/03 06:57:09;;;;;;;6.73;6.13;;;6.90;99.90;;;;;;5047010;28;20221;-73
2021/11/03 06:59:37;;;;;;;8.13;7.30;;;6.90;99.90;;;;;;5046859;28;20285;-73
2021/11/03 07:02:05;;;;;;;7.63;7.10;;;6.90;99.90;;;;;;5046382;28;20224;-73
2021/11/03 07:04:31;;;;;;;7.00;6.47;;;6.90;99.90;;;;;;5046869;28;20212;-73
2021/11/03 07:06:58;;;;;;;7.53;6.90;;;6.90;99.90;;;;;;5046674;28;20647;-73
2021/11/03 07:09:25;;;;;;;7.73;7.03;;;6.90;99.90;;;;;;5046772;28;20286;-73
2021/11/03 07:11:51;;;;;;;7.87;7.23;;;7.00;99.90;;;;;;5046525;28;20280;-73
2021/11/03 07:14:19;;;;;;;8.33;7.53;;;7.00;99.90;;;;;;5046623;28;20261;-73
2021/11/03 07:16:46;;;;;;;8.43;7.63;;;7.00;99.90;;;;;;5046501;27;20204;-73
2021/11/03 07:19:13;;;;;;;8.30;7.60;;;7.10;99.90;;;;;;5046303;28;20215;-73
2021/11/03 07:21:40;;;;;;;8.20;7.50;;;7.10;99.90;;;;;;5045446;28;20734;-73
2021/11/03 07:24:06;;;;;;;7.57;6.87;;;7.10;99.90;;;;;;5046275;28;20344;-73
2021/11/03 07:26:33;;;;;;;8.17;7.33;;;7.20;99.90;;;;;;5046376;28;20204;-73
2021/11/03 07:29:00;;;;;;;8.10;7.40;;;7.20;99.90;;;;;;5046258;28;20212;-73
2021/11/03 07:31:28;;;;;;;8.47;7.67;;;7.20;99.90;;;;;;5034002;28;20233;-73
2021/11/03 07:33:54;;;;;;;8.20;7.40;;;7.20;99.90;;;;;;5026346;28;20250;-73
2021/11/03 07:36:21;;;;;;;8.00;7.33;;;7.20;99.90;;;;;;5026450;28;20238;-73
2021/11/03 07:38:48;;;;;;;8.53;7.27;;;7.30;99.90;;;;;;5026106;28;20205;-73
2021/11/03 07:41:15;;;;;;;7.43;6.67;;;7.30;99.90;;;;;;5026394;28;20254;-73
2021/11/03 07:43:44;;;;;;;8.60;7.90;;;7.30;99.90;;;;;;5026007;28;20209;-73
2021/11/03 07:46:12;;;;;;;7.43;6.83;;;7.30;99.90;;;;;;5025838;28;20307;-73
2021/11/03 07:48:39;;;;;;;8.40;7.60;;;7.40;99.90;;;;;;5026218;28;20212;-73
2021/11/03 07:51:09;;;;;;;8.47;7.47;;;7.40;99.90;;;;;;5026183;28;20236;-73
2021/11/03 07:53:37;;;;;;;7.97;7.27;;;7.40;99.90;;;;;;5026195;28;20208;-73
2021/11/03 07:56:07;;;;;;;7.73;7.03;;;7.40;99.90;;;;;;5025986;28;20226;-73
2021/11/03 07:58:35;;;;;;;8.17;7.47;;;7.50;99.90;;;;;;5025987;28;20212;-73
2021/11/03 08:01:03;;;;;;;8.43;7.67;;;7.50;99.90;;;;;;5025563;28;20241;-73
2021/11/03 08:03:30;;;;;;;8.67;7.87;;;7.60;99.90;;;;;;5025665;28;20233;-73
2021/11/03 08:05:58;;;;;;;7.73;7.13;;;7.50;99.90;;;;;;5025742;28;20208;-73
2021/11/03 08:08:29;;;;;;;8.67;7.80;;;7.60;99.90;;;;;;5025901;28;20246;-73
2021/11/03 08:10:57;;;;;;;7.90;7.30;;;7.60;99.90;;;;;;5025298;28;20220;-73
2021/11/03 08:13:27;;;;;;;7.97;7.27;;;7.60;99.90;;;;;;5025465;28;20830;-73
2021/11/03 08:15:57;;;;;;;8.63;7.20;;;7.60;99.90;;;;;;5025350;28;21024;-73
2021/11/03 08:18:28;;;;;;;8.40;7.60;;;7.60;99.90;;;;;;5025860;28;20213;-73
2021/11/03 08:20:55;;;;;;;7.97;7.37;;;7.60;99.90;;;;;;5025563;28;20244;-73
2021/11/03 08:23:24;;;;;;;8.20;7.60;;;7.70;99.90;;;;;;5025273;28;20737;-73
2021/11/03 08:25:51;;;;;;;7.90;7.30;;;7.70;99.90;;;;;;5025533;28;20201;-74
2021/11/03 08:28:18;;;;;;;8.37;7.67;;;7.70;99.90;;;;;;5025350;28;20267;-73
2021/11/03 08:30:47;;;;;;;7.70;6.97;;;7.70;99.90;;;;;;5024979;28;20760;-73
2021/11/03 08:33:17;;;;;;;8.90;7.70;;;7.80;99.90;;;;;;5024560;28;20253;-73
2021/11/03 08:35:46;;;;;;;8.37;7.47;;;7.70;99.90;;;;;;5025267;28;20212;-73
2021/11/03 08:38:17;;;;;;;8.53;7.63;;;7.80;99.90;;;;;;5025270;28;20204;-73
2021/11/03 08:40:45;;;;;;;7.90;7.13;;;7.80;99.90;;;;;;5025302;28;20293;-73
2021/11/03 08:43:16;;;;;;;8.07;7.40;;;7.80;99.90;;;;;;5025623;28;20566;-73
2021/11/03 08:45:43;;;;;;;7.80;7.10;;;7.90;99.90;;;;;;5025661;28;20608;-73
2021/11/03 08:48:10;;;;;;;7.80;7.10;;;7.90;99.90;;;;;;5025179;28;20212;-73
2021/11/03 08:50:40;;;;;;;10.40;9.40;;;7.90;99.90;;;;;;5025384;28;20316;-73
2021/11/03 08:53:08;;;;;;;8.77;7.97;;;8.00;99.90;;;;;;5025215;28;20590;-73
2021/11/03 08:55:35;;;;;;;10.47;9.47;;;8.00;99.90;;;;;;5025122;28;20208;-73
2021/11/03 08:58:05;;;;;;;7.73;7.13;;;8.00;99.90;;;;;;5025276;28;20257;-73
2021/11/03 09:00:36;;;;;;;7.87;7.20;;;8.10;99.90;;;;;;5024523;28;20241;-74
2021/11/03 09:03:04;;;;;;;8.07;7.37;;;8.20;99.90;;;;;;5024915;28;20225;-73
2021/11/03 09:05:31;;;;;;;8.33;7.63;;;8.20;99.90;;;;;;5025102;28;20201;-73
2021/11/03 09:07:59;;;;;;;7.80;7.10;;;8.30;99.90;;;;;;5025199;28;20204;-73
2021/11/03 09:10:27;;;;;;;8.50;7.70;;;8.30;99.90;;;;;;5024976;28;20349;-73
2021/11/03 09:12:54;;;;;;;8.23;7.50;;;8.30;99.90;;;;;;5025441;28;20209;-73
2021/11/03 09:15:22;;;;;;;7.93;7.33;;;8.40;99.90;;;;;;5025063;28;20204;-73
2021/11/03 09:17:49;;;;;;;7.77;7.10;;;8.40;99.90;;;;;;5024637;28;20212;-73
2021/11/03 09:20:18;;;;;;;8.20;7.30;;;8.40;99.90;;;;;;5024740;28;20226;-73
2021/11/03 09:22:44;;;;;;;8.63;7.83;;;8.50;99.90;;;;;;5025045;28;20227;-73
2021/11/03 09:25:13;;;;;;;7.50;6.90;;;8.50;99.90;;;;;;5024727;28;20710;-74
2021/11/03 09:27:41;;;;;;;8.13;7.40;;;8.60;99.90;;;;;;5024902;28;20277;-73
2021/11/03 09:30:10;;;;;;;8.50;7.80;;;8.60;99.90;;;;;;5024532;28;20209;-73
2021/11/03 09:32:43;;;;;;;7.43;6.70;;;8.70;99.90;;;;;;5024752;28;20233;-73
2021/11/03 09:35:12;;;;;;;8.20;7.03;;;8.70;99.90;;;;;;5024568;28;20197;-73
2021/11/03 09:37:39;;;;;;;7.63;7.03;;;8.80;99.90;;;;;;5024761;28;20216;-73
2021/11/03 09:40:10;;;;;;;7.20;6.50;;;8.80;99.90;;;;;;5024282;28;20698;-73
2021/11/03 09:42:39;;;;;;;8.37;7.57;;;8.90;99.90;;;;;;5024587;28;20555;-73
2021/11/03 09:45:17;;;;;;;6.90;6.37;;;8.90;99.90;;;;;;5025525;28;20225;-73
2021/11/03 09:47:57;;;;;;;7.93;7.23;;;8.90;99.90;;;;;;5027707;28;20303;-74
2021/11/03 09:50:25;;;;;;;7.83;7.13;;;9.00;99.90;;;;;;5028178;28;20289;-73
2021/11/03 09:52:55;;;;;;;7.50;6.90;;;9.00;99.90;;;;;;5027923;28;20208;-73
2021/11/03 09:55:25;;;;;;;8.03;7.30;;;9.10;99.90;;;;;;5028015;28;20204;-73
2021/11/03 09:58:01;;;;;;;7.97;7.27;;;9.10;99.90;;;;;;5027360;28;20209;-72
2021/11/03 10:00:36;;;;;;;7.50;6.80;;;9.10;99.90;;;;;;5027726;28;20246;-73
2021/11/03 10:03:19;;;;;;;7.20;6.60;;;9.20;99.90;;;;;;5027401;28;20307;-73
2021/11/03 10:05:50;;;;;;;8.23;7.43;;;9.30;99.90;;;;;;5027462;28;20647;-73
2021/11/03 10:08:20;;;;;;;8.27;7.27;;;9.30;99.90;;;;;;5028026;28;20197;-73
2021/11/03 10:10:53;;;;;;;8.87;7.70;;;9.40;99.90;;;;;;5027844;28;20258;-73
2021/11/03 10:13:23;;;;;;;7.63;6.93;;;9.50;99.90;;;;;;5027886;28;20610;-73
2021/11/03 10:15:55;;;;;;;7.67;6.97;;;9.50;99.90;;;;;;5027828;28;20377;-73
2021/11/03 10:18:26;;;;;;;8.07;7.47;;;9.60;99.90;;;;;;5027671;28;20209;-73
2021/11/03 10:21:05;;;;;;;8.00;7.30;;;9.60;99.90;;;;;;5027736;28;20224;-73
2021/11/03 10:23:35;;;;;;;8.17;7.50;;;9.70;99.90;;;;;;5027633;28;20225;-73
2021/11/03 10:26:05;;;;;;;7.27;6.63;;;9.70;99.90;;;;;;5027313;28;20264;-73
2021/11/03 10:28:38;;;;;;;8.03;7.30;;;9.80;99.90;;;;;;5027564;28;20198;-73
2021/11/03 10:31:08;;;;;;;8.17;7.47;;;9.80;99.90;;;;;;5027300;28;20217;-73
2021/11/03 10:33:41;;;;;;;8.37;7.53;;;9.70;99.90;;;;;;5027086;28;20739;-73
2021/11/03 10:36:15;;;;;;;6.83;6.30;;;9.70;99.90;;;;;;5027523;28;20204;-73
2021/11/03 10:38:44;;;;;;;8.30;7.60;;;9.70;99.90;;;;;;5027241;28;20193;-73
2021/11/03 10:41:19;;;;;;;7.43;6.83;;;9.70;99.90;;;;;;5027137;28;20217;-73
2021/11/03 10:43:59;;;;;;;8.00;7.20;;;9.70;99.90;;;;;;5027198;28;20246;-73
2021/11/03 10:46:30;;;;;;;7.53;6.93;;;9.70;99.90;;;;;;5027261;28;20225;-73
2021/11/03 10:49:17;;;;;;;7.87;7.17;;;9.80;99.90;;;;;;5027304;28;20253;-73
2021/11/03 10:51:45;;;;;;;7.10;6.43;;;9.80;99.90;;;;;;5026707;28;20224;-73
2021/11/03 10:54:16;;;;;;;7.27;6.67;;;9.80;99.90;;;;;;5027272;28;20209;-73
2021/11/03 10:56:53;;;;;;;7.67;6.97;;;9.90;99.90;;;;;;5025974;28;20197;-73
2021/11/03 10:59:27;;;;;;;6.53;6.03;;;10.00;99.90;;;;;;5026853;28;20233;-73
2021/11/03 11:01:55;;;;;;;7.17;6.57;;;10.00;99.90;;;;;;5026945;28;20238;-73
2021/11/03 11:04:29;;;;;;;6.70;6.17;;;10.00;99.90;;;;;;5026948;28;20204;-73
2021/11/03 11:07:00;;;;;;;7.17;6.67;;;10.00;99.90;;;;;;5026711;28;20192;-73
2021/11/03 11:09:31;;;;;;;6.90;6.30;;;10.00;99.90;;;;;;5026867;28;20209;-73
2021/11/03 11:12:04;;;;;;;6.83;6.33;;;10.10;99.90;;;;;;5026666;28;20256;-73
2021/11/03 11:14:33;;;;;;;7.07;6.47;;;10.00;99.90;;;;;;5026452;28;20193;-73
2021/11/03 11:17:04;;;;;;;7.03;6.43;;;10.10;99.90;;;;;;5026297;28;21050;-73
2021/11/03 11:19:44;;;;;;;6.63;6.13;;;10.20;99.90;;;;;;5026468;28;20235;-73
2021/11/03 11:22:23;;;;;;;6.87;6.27;;;10.30;99.90;;;;;;5026696;28;20196;-73
2021/11/03 11:24:59;;;;;;;6.17;5.77;;;10.40;99.90;;;;;;5026489;28;20277;-73
2021/11/03 11:27:29;;;;;;;5.57;5.17;;;10.50;99.90;;;;;;5026397;28;20232;-73
2021/11/03 11:30:05;;;;;;;5.87;5.47;;;10.60;99.90;;;;;;5026520;28;20301;-73
2021/11/03 11:32:42;;;;;;;5.70;5.30;;;10.70;99.90;;;;;;5026637;28;20220;-73
2021/11/03 11:35:18;;;;;;;6.63;6.13;;;10.70;99.90;;;;;;5026455;28;20220;-73
2021/11/03 11:38:01;;;;;;;5.90;5.40;;;10.80;99.90;;;;;;5026406;28;20201;-73
2021/11/03 11:40:41;;;;;;;6.13;5.73;;;10.90;99.90;;;;;;5026422;28;20269;-73
2021/11/03 11:43:16;;;;;;;5.60;5.07;;;10.90;99.90;;;;;;5026364;28;20197;-73
2021/11/03 11:45:44;;;;;;;5.77;5.37;;;10.90;99.90;;;;;;5026047;28;20225;-73
2021/11/03 11:48:19;;;;;;;7.40;6.67;;;10.90;99.90;;;;;;5026170;28;20297;-73
2021/11/03 11:50:51;;;;;;;6.17;5.67;;;10.90;99.90;;;;;;5026250;28;20197;-73
2021/11/03 11:53:28;;;;;;;5.37;4.87;;;11.00;99.90;;;;;;5026159;28;20228;-73
2021/11/03 11:56:20;;;;;;;5.93;5.53;;;11.40;99.90;;;;;;5025964;28;20704;-73
2021/11/03 11:58:49;;;;;;;6.10;5.60;;;11.80;99.90;;;;;;5025964;28;20271;-73
2021/11/03 12:01:20;;;;;;;5.60;5.20;;;12.20;99.90;;;;;;4986743;28;20237;-73
2021/11/03 12:04:08;;;;;;;4.47;4.17;;;12.50;99.90;;;;;;4986757;28;20202;-74
2021/11/03 12:06:42;;;;;;;4.50;4.20;;;12.60;99.90;;;;;;4986023;28;20253;-73
2021/11/03 12:09:21;;;;;;;3.63;3.43;;;12.80;99.90;;;;;;4986464;28;20406;-73
2021/11/03 12:12:03;;;;;;;3.20;3.00;;;13.00;99.90;;;;;;4986443;28;20238;-73
2021/11/03 12:14:38;;;;;;;2.60;2.50;;;13.20;99.90;;;;;;4986609;28;20214;-73
2021/11/03 12:17:20;;;;;;;2.70;2.60;;;13.40;99.90;;;;;;4986550;28;20194;-73
2021/11/03 12:19:56;;;;;;;2.27;2.17;;;13.60;99.90;;;;;;4986421;28;20202;-73
2021/11/03 12:22:50;;;;;;;2.20;2.10;;;13.70;99.90;;;;;;4986352;28;20256;-73
2021/11/03 12:25:43;;;;;;;1.93;1.83;;;13.80;99.90;;;;;;4971970;28;20210;-74
2021/11/03 12:28:49;;;;;;;2.20;2.10;;;14.00;99.90;;;;;;4986532;28;20647;-73
2021/11/03 12:31:29;;;;;;;2.30;2.20;;;14.10;99.90;;;;;;4986339;28;20194;-73
2021/11/03 12:34:19;;;;;;;2.00;1.90;;;14.30;99.90;;;;;;4986072;28;20234;-73
2021/11/03 12:36:57;;;;;;;1.80;1.70;;;14.40;99.90;;;;;;4986131;28;20259;-73
2021/11/03 12:40:03;;;;;;;2.00;1.90;;;14.50;99.90;;;;;;4985983;28;20734;-73
2021/11/03 12:42:34;;;;;;;2.50;1.93;;;14.60;99.90;;;;;;4988973;28;20214;-73
2021/11/03 12:45:18;;;;;;;1.87;1.77;;;14.70;99.90;;;;;;4985785;28;20233;-73
2021/11/03 12:47:50;;;;;;;1.40;1.40;;;14.90;99.90;;;;;;4985128;28;20737;-73
2021/11/03 12:50:22;;;;;;;3.13;1.70;;;15.00;99.90;;;;;;4986272;28;20263;-73
2021/11/03 12:52:52;;;;;;;4.37;2.00;;;15.10;99.90;;;;;;4985682;28;20261;-73
2021/11/03 12:55:25;;;;;;;1.77;1.67;;;15.00;99.90;;;;;;4985687;28;20680;-73
2021/11/03 12:57:54;;;;;;;2.17;1.97;;;15.00;99.90;;;;;;4985829;28;20528;-73
2021/11/03 13:00:23;;;;;;;2.03;1.87;;;15.10;99.90;;;;;;5009644;28;20240;-73
2021/11/03 13:02:58;;;;;;;1.70;1.60;;;15.10;99.90;;;;;;5024860;28;20616;-73
2021/11/03 13:05:28;;;;;;;1.90;1.80;;;15.10;99.90;;;;;;5025072;28;20199;-73
2021/11/03 13:07:57;;;;;;;1.93;1.80;;;15.00;99.90;;;;;;5024809;28;20397;-73